Time;durP1;ratioP1;P1;durP2;ratioP2;P2;SDS_P1;SDS_P2;PMS_P1;PMS_P2;Temp;Humidity;BMP_temperature;BMP_pressure;BME280_temperature;BME280_humidity;BME280_pressure;Samples;Min_cycle;Max_cycle;Signal;HPM_P1;HPM_P2
2023/04/23 00:01:43;;;;;;;3.20;3.00;;;;;;;16.90;79.21;99611.63;5033484;28;20234;-82
2023/04/23 00:04:12;;;;;;;3.53;3.23;;;;;;;16.92;79.39;99604.47;5014103;28;20358;-81
2023/04/23 00:06:40;;;;;;;3.40;3.10;;;;;;;16.92;79.54;99606.28;5014295;28;20306;-81
2023/04/23 00:09:07;;;;;;;4.07;3.20;;;;;;;16.88;79.42;99601.16;5013906;28;20301;-81
2023/04/23 00:11:37;;;;;;;3.33;3.13;;;;;;;16.84;79.79;99604.09;5013064;28;20234;-82
2023/04/23 00:14:05;;;;;;;4.03;3.73;;;;;;;16.84;80.18;99591.75;5013582;28;20234;-81
2023/04/23 00:16:32;;;;;;;3.30;3.10;;;;;;;16.82;80.80;99579.59;5011699;28;20264;-80
2023/04/23 00:18:58;;;;;;;3.93;3.63;;;;;;;16.75;80.36;99580.84;5013068;28;20620;-82
2023/04/23 00:21:26;;;;;;;4.20;3.90;;;;;;;16.76;81.12;99566.75;5013413;28;20713;-82
2023/04/23 00:23:54;;;;;;;4.27;3.97;;;;;;;16.79;80.92;99563.94;5013627;28;20744;-82
2023/04/23 00:26:20;;;;;;;4.10;3.80;;;;;;;16.68;81.16;99565.41;5013572;28;20755;-82
2023/04/23 00:28:46;;;;;;;3.87;3.57;;;;;;;16.71;81.28;99556.50;5013634;28;20272;-81
2023/04/23 00:31:14;;;;;;;4.43;3.83;;;;;;;16.66;81.72;99555.91;5017489;28;20246;-81
2023/04/23 00:33:41;;;;;;;4.50;4.10;;;;;;;16.62;82.14;99542.06;5014085;28;20281;-79
2023/04/23 00:36:08;;;;;;;4.37;4.07;;;;;;;16.57;82.49;99538.84;5017641;28;20261;-81
2023/04/23 00:38:34;;;;;;;4.53;4.20;;;;;;;16.53;83.74;99516.25;5017902;28;20214;-80
2023/04/23 00:41:00;;;;;;;5.00;4.60;;;;;;;16.52;83.03;99514.53;5017435;28;20223;-80
2023/04/23 00:43:27;;;;;;;5.20;4.80;;;;;;;16.48;82.59;99515.66;5017201;28;20214;-79
2023/04/23 00:45:53;;;;;;;4.70;4.40;;;;;;;16.48;83.76;99502.50;5017705;28;20567;-80
2023/04/23 00:48:24;;;;;;;5.13;4.73;;;;;;;16.43;84.15;99484.34;5017541;28;20210;-80
2023/04/23 00:50:58;;;;;;;12.40;4.17;;;;;;;16.33;85.37;99466.50;5016966;28;20207;-81
2023/04/23 00:53:26;;;;;;;4.87;4.40;;;;;;;16.37;84.82;99475.94;5020227;28;20317;-81
2023/04/23 00:55:54;;;;;;;4.47;4.17;;;;;;;16.34;84.92;99476.97;5017123;28;20373;-80
2023/04/23 00:58:20;;;;;;;5.40;5.00;;;;;;;16.34;84.64;99481.38;5017185;28;20217;-81
2023/04/23 01:00:48;;;;;;;4.43;4.03;;;;;;;16.31;84.34;99487.66;5016973;28;20746;-81
2023/04/23 01:03:17;;;;;;;4.30;3.90;;;;;;;16.23;84.00;99501.28;5017132;28;20285;-81
2023/04/23 01:05:45;;;;;;;3.90;3.70;;;;;;;16.28;83.15;99508.91;5017370;28;20691;-80
2023/04/23 01:08:15;;;;;;;4.00;3.73;;;;;;;16.22;82.54;99530.34;5017047;28;20203;-81
2023/04/23 01:10:42;;;;;;;3.97;3.60;;;;;;;16.25;83.03;99538.91;5017219;28;20210;-81
2023/04/23 01:13:09;;;;;;;4.00;3.70;;;;;;;16.22;83.15;99528.56;5017519;28;20230;-80
2023/04/23 01:15:36;;;;;;;4.00;3.63;;;;;;;16.19;83.42;99531.34;5017299;28;20238;-81
2023/04/23 01:18:03;;;;;;;3.87;3.40;;;;;;;16.17;83.94;99513.94;5017143;28;20260;-80
2023/04/23 01:20:29;;;;;;;4.00;3.77;;;;;;;16.12;83.56;99516.84;5016732;28;20206;-80
2023/04/23 01:22:57;;;;;;;3.60;3.40;;;;;;;16.15;83.35;99518.44;5019782;28;20241;-82
2023/04/23 01:25:24;;;;;;;4.17;3.80;;;;;;;16.13;83.45;99533.50;5016838;28;20577;-81
2023/04/23 01:27:50;;;;;;;4.00;3.73;;;;;;;16.13;83.00;99525.59;5016885;28;20241;-81
2023/04/23 01:30:17;;;;;;;3.67;3.37;;;;;;;16.06;83.58;99525.09;5016940;28;20312;-80
2023/04/23 01:32:44;;;;;;;4.50;4.20;;;;;;;16.03;84.06;99522.63;5016816;28;20231;-81
2023/04/23 01:35:11;;;;;;;4.60;4.27;;;;;;;15.97;84.11;99515.06;5017136;28;20207;-79
2023/04/23 01:37:39;;;;;;;3.90;3.50;;;;;;;15.96;84.19;99521.28;5016172;28;20569;-81
2023/04/23 01:40:08;;;;;;;4.40;4.10;;;;;;;15.78;83.90;99517.91;5016353;28;20231;-82
2023/04/23 01:42:34;;;;;;;4.57;4.17;;;;;;;15.72;83.38;99529.56;5016778;28;20269;-81
2023/04/23 01:45:02;;;;;;;4.27;3.97;;;;;;;15.51;83.48;99534.22;5016464;28;20284;-82
2023/04/23 01:47:29;;;;;;;4.03;3.73;;;;;;;15.60;83.26;99533.72;5015894;28;20225;-81
2023/04/23 01:49:55;;;;;;;4.43;4.13;;;;;;;15.64;82.82;99539.66;5016332;28;20205;-81
2023/04/23 01:52:21;;;;;;;4.57;4.27;;;;;;;15.57;81.86;99573.34;5019208;28;20738;-81
2023/04/23 01:54:48;;;;;;;4.53;4.23;;;;;;;15.24;81.48;99611.00;5016219;28;20234;-81
2023/04/23 01:57:21;;;;;;;4.60;4.30;;;;;;;15.40;81.67;99602.31;5016386;28;20234;-81
2023/04/23 01:59:48;;;;;;;5.10;4.80;;;;;;;15.37;81.28;99615.63;5016157;28;20272;-79
2023/04/23 02:02:16;;;;;;;5.50;5.10;;;;;;;15.40;81.95;99608.44;5016240;28;20233;-81
2023/04/23 02:04:44;;;;;;;5.23;4.90;;;;;;;15.49;81.39;99618.44;5016043;28;20203;-81
2023/04/23 02:07:11;;;;;;;5.60;5.20;;;;;;;15.52;81.25;99622.72;5016180;28;20221;-81
2023/04/23 02:09:38;;;;;;;5.23;4.93;;;;;;;15.22;83.32;99607.63;5016014;28;20206;-80
2023/04/23 02:12:05;;;;;;;6.40;6.00;;;;;;;14.68;86.07;99555.13;5015773;28;20234;-81
2023/04/23 02:14:32;;;;;;;8.70;8.10;;;;;;;14.49;87.73;99501.81;5015885;28;20280;-81
2023/04/23 02:16:59;;;;;;;11.33;10.43;;;;;;;14.39;88.67;99454.16;5015904;28;20764;-80
2023/04/23 02:19:26;;;;;;;15.30;14.20;;;;;;;14.02;89.37;99448.09;5015697;28;20214;-82
2023/04/23 02:21:53;;;;;;;17.57;16.07;;;;;;;13.87;92.34;99392.00;5018683;28;20777;-81
2023/04/23 02:24:19;;;;;;;18.50;17.00;;;;;;;13.93;92.48;99361.97;5015735;28;20201;-80
2023/04/23 02:26:46;;;;;;;18.07;16.77;;;;;;;13.91;91.92;99379.56;5015921;28;20205;-80
2023/04/23 02:29:14;;;;;;;18.30;16.83;;;;;;;13.81;92.54;99371.31;5015530;28;20221;-80
2023/04/23 02:31:43;;;;;;;18.17;16.77;;;;;;;13.88;93.28;99354.34;5015865;28;20253;-81
2023/04/23 02:34:10;;;;;;;18.03;16.43;;;;;;;13.72;92.69;99370.94;5015466;28;20226;-80
2023/04/23 02:36:37;;;;;;;18.63;17.13;;;;;;;13.84;92.62;99371.16;5015821;28;20206;-80
2023/04/23 02:39:03;;;;;;;18.77;17.27;;;;;;;13.96;92.34;99387.22;5015435;28;20213;-81
2023/04/23 02:41:30;;;;;;;18.33;16.93;;;;;;;14.01;92.23;99398.31;5015377;28;20232;-81
2023/04/23 02:43:56;;;;;;;17.67;16.30;;;;;;;14.17;91.97;99404.53;5015339;28;20219;-81
2023/04/23 02:46:22;;;;;;;18.20;16.80;;;;;;;14.27;91.11;99426.75;5015378;28;20265;-82
2023/04/23 02:48:50;;;;;;;18.93;17.33;;;;;;;13.92;92.01;99425.88;5015330;28;20268;-80
2023/04/23 02:51:16;;;;;;;19.80;18.23;;;;;;;14.09;92.44;99419.78;5015298;28;20287;-81
2023/04/23 02:53:43;;;;;;;19.47;17.40;;;;;;;14.01;92.45;99433.31;5018059;28;20223;-82
2023/04/23 02:56:09;;;;;;;18.57;17.17;;;;;;;13.97;94.58;99395.00;5015099;28;20256;-81
2023/04/23 02:58:36;;;;;;;18.07;16.67;;;;;;;14.17;94.11;99406.28;5014857;28;20214;-82
2023/04/23 03:01:03;;;;;;;18.67;17.17;;;;;;;14.32;93.56;99397.63;5014315;28;20275;-82
2023/04/23 03:03:32;;;;;;;18.17;16.67;;;;;;;14.37;92.03;99426.25;5015553;28;20201;-80
2023/04/23 03:06:01;;;;;;;18.43;16.97;;;;;;;14.45;91.14;99448.59;5015454;28;20205;-82
2023/04/23 03:08:28;;;;;;;19.60;18.00;;;;;;;14.50;90.70;99469.34;5015214;28;20210;-82
2023/04/23 03:10:54;;;;;;;17.23;15.93;;;;;;;14.53;89.59;99489.34;5015575;28;20210;-82
2023/04/23 03:13:21;;;;;;;19.17;17.67;;;;;;;14.63;89.32;99514.28;5015315;28;20227;-81
2023/04/23 03:15:47;;;;;;;18.43;16.87;;;;;;;14.69;89.12;99530.56;5015332;28;20209;-82
2023/04/23 03:18:14;;;;;;;18.03;16.63;;;;;;;14.75;88.40;99536.47;5015274;28;20209;-82
2023/04/23 03:20:42;;;;;;;18.57;17.07;;;;;;;14.79;87.80;99561.66;5014705;28;20551;-80
2023/04/23 03:23:12;;;;;;;18.03;16.63;;;;;;;14.69;88.77;99567.34;5021279;28;20226;-81
2023/04/23 03:25:38;;;;;;;17.97;16.60;;;;;;;14.75;88.59;99557.47;5034868;28;20210;-81
2023/04/23 03:28:05;;;;;;;17.70;16.33;;;;;;;14.65;89.05;99554.47;5016302;28;20209;-82
2023/04/23 03:30:31;;;;;;;19.00;17.40;;;;;;;14.13;91.11;99535.94;5015110;28;20205;-83
2023/04/23 03:32:58;;;;;;;18.80;17.40;;;;;;;14.21;92.07;99495.31;5022202;28;20265;-81
2023/04/23 03:35:25;;;;;;;19.40;17.80;;;;;;;14.17;92.16;99488.50;5035813;28;20237;-81
2023/04/23 03:37:52;;;;;;;19.77;18.27;;;;;;;14.02;92.21;99476.97;5036465;28;20218;-80
2023/04/23 03:40:23;;;;;;;21.83;19.83;;;;;;;13.50;94.25;99456.72;5035752;28;20226;-81
2023/04/23 03:42:49;;;;;;;23.03;21.00;;;;;;;13.42;96.02;99421.28;5036331;28;20222;-79
2023/04/23 03:45:16;;;;;;;25.63;23.33;;;;;;;12.71;99.63;99375.56;5036465;28;20237;-81
2023/04/23 03:47:42;;;;;;;25.33;23.13;;;;;;;12.91;100.00;99332.75;5036678;28;20346;-81
2023/04/23 03:50:11;;;;;;;25.33;22.93;;;;;;;12.78;100.00;99328.16;5036562;28;20235;-82
2023/04/23 03:52:38;;;;;;;28.23;25.57;;;;;;;12.69;100.00;99325.03;5032961;28;20227;-83
2023/04/23 03:55:04;;;;;;;28.07;25.37;;;;;;;12.35;100.00;99306.53;5015710;28;20772;-83
2023/04/23 03:57:32;;;;;;;30.77;27.20;;;;;;;12.16;100.00;99281.19;5015805;28;20273;-81
2023/04/23 04:00:03;;;;;;;33.33;28.47;;;;;;;12.01;100.00;99292.31;5015945;28;20206;-81
2023/04/23 04:02:30;;;;;;;34.33;28.00;;;;;;;12.00;100.00;99290.63;5015542;28;20237;-82
2023/04/23 04:04:56;;;;;;;35.83;28.07;;;;;;;12.10;100.00;99307.59;5015495;28;20204;-82
2023/04/23 04:07:23;;;;;;;34.57;28.27;;;;;;;12.07;100.00;99324.28;5015294;28;20269;-82
2023/04/23 04:09:51;;;;;;;32.83;27.37;;;;;;;12.01;100.00;99331.53;5014997;28;20205;-82
2023/04/23 04:12:18;;;;;;;34.20;27.27;;;;;;;12.10;100.00;99336.38;5015325;28;20227;-82
2023/04/23 04:14:45;;;;;;;30.93;27.60;;;;;;;12.14;100.00;99353.66;5015427;28;20276;-81
2023/04/23 04:17:14;;;;;;;35.43;29.07;;;;;;;12.37;100.00;99375.34;5015304;28;20206;-82
2023/04/23 04:19:41;;;;;;;32.10;27.50;;;;;;;12.38;100.00;99398.00;5015469;28;20671;-82
2023/04/23 04:22:08;;;;;;;31.00;26.73;;;;;;;12.56;100.00;99420.75;5018218;28;20252;-82
2023/04/23 04:24:35;;;;;;;31.33;27.57;;;;;;;12.44;100.00;99445.69;5014899;28;20216;-82
2023/04/23 04:27:01;;;;;;;30.27;26.77;;;;;;;12.49;100.00;99458.59;5015489;28;20213;-82
2023/04/23 04:29:28;;;;;;;34.43;27.20;;;;;;;12.29;100.00;99465.50;5014691;28;20255;-82
2023/04/23 04:31:56;;;;;;;33.60;28.87;;;;;;;12.25;100.00;99465.69;5016490;28;20613;-82
2023/04/23 04:34:23;;;;;;;35.03;27.57;;;;;;;12.48;100.00;99465.56;5015489;28;20228;-82
2023/04/23 04:36:52;;;;;;;34.97;28.10;;;;;;;12.42;100.00;99470.22;5014945;28;20209;-82
2023/04/23 04:39:21;;;;;;;32.57;26.93;;;;;;;12.68;100.00;99477.81;5014460;28;20649;-82
2023/04/23 04:41:47;;;;;;;31.43;27.33;;;;;;;12.68;100.00;99511.00;5014964;28;20288;-82
2023/04/23 04:44:15;;;;;;;30.10;25.97;;;;;;;12.87;99.06;99527.63;5014786;28;20283;-82
2023/04/23 04:46:42;;;;;;;32.03;28.10;;;;;;;12.69;98.52;99557.22;5015056;28;20208;-82
2023/04/23 04:49:12;;;;;;;33.23;28.07;;;;;;;12.61;98.27;99562.78;5014827;28;20213;-81
2023/04/23 04:51:41;;;;;;;34.63;28.73;;;;;;;12.15;99.61;99561.16;5017097;28;20297;-82
2023/04/23 04:54:08;;;;;;;39.07;28.93;;;;;;;11.98;100.00;99522.59;5015565;28;20236;-82
2023/04/23 04:56:34;;;;;;;34.63;27.67;;;;;;;12.03;100.00;99518.91;5015406;28;20207;-82
2023/04/23 04:59:01;;;;;;;35.07;27.43;;;;;;;12.04;100.00;99525.81;5014825;28;20223;-82
2023/04/23 05:01:28;;;;;;;34.00;27.23;;;;;;;11.91;100.00;99524.59;5019975;28;20218;-81
2023/04/23 05:03:55;;;;;;;34.30;27.47;;;;;;;11.81;100.00;99525.84;5019317;28;20215;-81
2023/04/23 05:06:23;;;;;;;33.17;28.37;;;;;;;11.85;100.00;99528.28;5024420;28;20225;-81
2023/04/23 05:08:49;;;;;;;36.83;28.07;;;;;;;11.90;100.00;99534.22;5024854;28;20257;-80
2023/04/23 05:11:16;;;;;;;33.67;27.97;;;;;;;11.94;100.00;99531.50;5022186;28;20720;-82
2023/04/23 05:13:42;;;;;;;32.50;26.17;;;;;;;11.98;100.00;99522.59;5023849;28;20549;-81
2023/04/23 05:16:09;;;;;;;31.60;27.87;;;;;;;12.03;100.00;99541.56;5023196;28;20207;-82
2023/04/23 05:18:36;;;;;;;29.53;26.10;;;;;;;12.11;100.00;99555.22;5022402;28;20291;-81
2023/04/23 05:21:02;;;;;;;33.20;27.93;;;;;;;12.18;100.00;99554.03;5026381;28;20222;-80
2023/04/23 05:23:30;;;;;;;33.00;27.50;;;;;;;11.86;100.00;99550.91;5031066;28;20202;-81
2023/04/23 05:25:58;;;;;;;36.97;28.93;;;;;;;11.73;100.00;99542.69;5023204;28;20211;-82
2023/04/23 05:28:25;;;;;;;33.27;28.53;;;;;;;12.00;100.00;99541.69;5017015;28;20207;-80
2023/04/23 05:30:52;;;;;;;35.47;28.77;;;;;;;11.81;100.00;99531.91;5017303;28;20290;-81
2023/04/23 05:33:18;;;;;;;35.10;28.10;;;;;;;12.03;100.00;99534.59;5017350;28;20261;-81
2023/04/23 05:35:44;;;;;;;34.60;28.33;;;;;;;12.21;100.00;99551.31;5017031;28;20269;-81
2023/04/23 05:38:11;;;;;;;30.83;27.63;;;;;;;12.43;99.23;99574.84;5017173;28;20207;-82
2023/04/23 05:40:38;;;;;;;31.93;27.43;;;;;;;12.61;98.35;99594.19;5016648;28;20207;-81
2023/04/23 05:43:11;;;;;;;29.50;26.33;;;;;;;12.79;96.80;99621.38;5017114;28;20277;-81
2023/04/23 05:45:41;;;;;;;28.43;25.43;;;;;;;12.96;96.12;99651.25;5016689;28;20276;-81
2023/04/23 05:48:09;;;;;;;29.33;26.17;;;;;;;12.83;95.71;99666.66;5016884;28;20238;-81
2023/04/23 05:50:35;;;;;;;29.20;26.07;;;;;;;12.99;96.03;99662.47;5016751;28;20218;-82
2023/04/23 05:53:01;;;;;;;30.23;27.03;;;;;;;13.12;95.41;99678.53;5057864;22;20660;-81
2023/04/23 05:55:31;;;;;;;28.70;25.80;;;;;;;13.23;94.89;99688.56;5055744;28;20298;-83
2023/04/23 05:58:01;;;;;;;28.03;25.17;;;;;;;13.03;96.19;99681.53;5056100;28;20263;-79
2023/04/23 06:00:29;;;;;;;28.17;25.23;;;;;;;13.13;95.68;99674.16;5055427;28;20653;-80
2023/04/23 06:02:55;;;;;;;29.00;25.20;;;;;;;13.25;95.75;99687.59;5056155;28;20728;-80
2023/04/23 06:05:27;;;;;;;27.30;24.73;;;;;;;13.35;94.00;99716.91;5055856;28;20205;-83
2023/04/23 06:07:56;;;;;;;30.13;26.13;;;;;;;13.36;93.53;99726.50;5056262;28;20233;-83
2023/04/23 06:10:28;;;;;;;29.03;26.13;;;;;;;13.23;90.92;99780.31;5055916;28;20635;-80
2023/04/23 06:12:56;;;;;;;29.07;25.33;;;;;;;13.08;89.72;99819.31;5056061;28;20230;-81
2023/04/23 06:15:30;;;;;;;27.50;24.67;;;;;;;12.68;88.80;99854.00;5055583;28;20229;-81
2023/04/23 06:17:58;;;;;;;27.87;25.00;;;;;;;12.48;89.18;99866.06;5057240;28;20275;-81
2023/04/23 06:20:25;;;;;;;27.53;24.23;;;;;;;12.39;88.91;99860.31;5055033;28;20271;-79
2023/04/23 06:22:51;;;;;;;28.50;25.40;;;;;;;12.58;89.24;99848.25;5055342;28;20241;-80
2023/04/23 06:25:19;;;;;;;28.63;25.53;;;;;;;12.43;89.38;99838.38;5055549;28;20197;-82
2023/04/23 06:27:48;;;;;;;28.80;25.03;;;;;;;12.23;89.70;99842.56;5055774;28;20214;-83
2023/04/23 06:30:14;;;;;;;29.57;26.20;;;;;;;12.21;90.85;99825.19;5055463;28;20255;-82
2023/04/23 06:32:42;;;;;;;33.73;26.50;;;;;;;12.07;91.88;99800.38;5055300;28;20225;-81
2023/04/23 06:35:09;;;;;;;28.97;25.50;;;;;;;12.07;93.01;99771.59;5055661;28;20256;-83
2023/04/23 06:37:39;;;;;;;31.47;25.57;;;;;;;11.94;94.52;99740.72;5055872;28;20205;-82
2023/04/23 06:40:12;;;;;;;33.90;27.97;;;;;;;11.84;96.05;99696.53;5055075;28;20190;-84
2023/04/23 06:42:40;;;;;;;34.23;27.50;;;;;;;11.95;97.02;99659.56;5055482;28;20286;-84
2023/04/23 06:45:07;;;;;;;29.77;26.37;;;;;;;12.20;97.57;99625.47;5054962;28;20548;-80
2023/04/23 06:47:33;;;;;;;31.83;26.63;;;;;;;12.41;96.94;99621.19;5055376;28;20638;-80
2023/04/23 06:50:05;;;;;;;33.60;27.37;;;;;;;12.69;96.29;99635.78;5055326;28;20205;-81
2023/04/23 06:52:33;;;;;;;33.33;27.67;;;;;;;12.38;96.33;99651.84;5054637;28;20238;-83
2023/04/23 06:55:01;;;;;;;28.93;25.73;;;;;;;12.57;95.49;99657.22;5054590;28;20229;-83
2023/04/23 06:57:28;;;;;;;34.27;27.50;;;;;;;12.76;94.36;99667.81;5054527;28;20211;-81
2023/04/23 06:59:54;;;;;;;29.43;25.60;;;;;;;12.88;93.54;99693.47;5054759;28;20255;-81
2023/04/23 07:02:22;;;;;;;30.17;26.63;;;;;;;13.10;92.82;99706.56;5054959;28;20345;-83
2023/04/23 07:04:51;;;;;;;29.30;26.23;;;;;;;12.74;92.50;99729.84;5055111;28;20203;-80
2023/04/23 07:07:23;;;;;;;31.23;26.63;;;;;;;12.79;93.14;99714.81;5054523;28;20244;-81
2023/04/23 07:09:49;;;;;;;31.40;26.50;;;;;;;13.03;92.76;99712.97;5054583;28;20665;-81
2023/04/23 07:12:16;;;;;;;29.23;26.10;;;;;;;13.22;92.80;99721.81;5054830;28;20254;-81
2023/04/23 07:14:44;;;;;;;31.07;27.23;;;;;;;13.11;92.21;99729.25;5054769;28;20221;-82
2023/04/23 07:17:17;;;;;;;30.80;26.53;;;;;;;13.24;91.92;99719.97;5054576;28;20692;-83
2023/04/23 07:19:46;;;;;;;32.30;28.10;;;;;;;13.34;91.16;99725.72;5055138;28;20209;-84
2023/04/23 07:22:21;;;;;;;27.80;24.90;;;;;;;13.46;89.50;99767.13;5054395;28;20236;-80
2023/04/23 07:24:50;;;;;;;32.70;27.30;;;;;;;13.56;86.98;99811.31;5054896;28;20263;-83
2023/04/23 07:27:20;;;;;;;27.97;25.07;;;;;;;13.67;87.04;99836.19;5054515;28;20209;-83
2023/04/23 07:29:55;;;;;;;27.50;24.70;;;;;;;13.69;85.17;99872.84;5055876;28;20705;-81
2023/04/23 07:32:26;;;;;;;23.87;21.43;;;;;;;13.47;80.29;99957.59;5056165;28;20720;-82
2023/04/23 07:34:55;;;;;;;23.20;21.20;;;;;;;13.51;79.82;100002.91;5056265;28;20225;-83
2023/04/23 07:37:25;;;;;;;21.50;19.37;;;;;;;13.33;76.76;100079.66;5054552;28;20209;-82
2023/04/23 07:39:57;;;;;;;23.03;20.80;;;;;;;13.46;79.79;100083.53;5055163;28;20218;-81
2023/04/23 07:42:28;;;;;;;21.63;19.73;;;;;;;13.28;78.48;100085.88;5055377;28;20748;-84
2023/04/23 07:44:58;;;;;;;22.47;20.37;;;;;;;13.03;79.27;100106.84;5055296;28;20309;-84
2023/04/23 07:47:35;;;;;;;23.13;20.87;;;;;;;13.24;81.09;100060.69;5055078;28;20206;-84
2023/04/23 07:50:03;;;;;;;24.30;21.90;;;;;;;13.43;81.73;100023.34;5055568;28;20207;-82
2023/04/23 07:52:36;;;;;;;24.07;21.67;;;;;;;13.55;83.30;99985.31;5055192;28;20238;-83
2023/04/23 07:55:04;;;;;;;24.03;21.37;;;;;;;13.42;79.78;99966.56;5055007;28;20278;-82
2023/04/23 07:57:37;;;;;;;22.50;20.43;;;;;;;13.54;79.38;100008.06;5056334;28;20673;-81
2023/04/23 08:00:12;;;;;;;23.17;20.97;;;;;;;13.70;79.34;100030.16;5055664;28;20254;-81
2023/04/23 08:02:38;;;;;;;22.60;20.67;;;;;;;13.60;76.41;100073.41;5056659;28;20729;-81
2023/04/23 08:05:08;;;;;;;21.63;19.63;;;;;;;13.72;78.04;100095.69;5056421;28;20762;-82
2023/04/23 08:07:35;;;;;;;21.10;19.10;;;;;;;13.75;79.30;100056.19;5054398;28;20207;-80
2023/04/23 08:10:04;;;;;;;20.93;19.13;;;;;;;13.56;75.18;100113.75;5054320;28;20198;-81
2023/04/23 08:12:34;;;;;;;24.17;21.70;;;;;;;13.54;77.61;100085.84;5055292;28;20605;-81
2023/04/23 08:15:01;;;;;;;23.23;20.90;;;;;;;13.46;78.76;100067.81;5053809;28;20694;-82
2023/04/23 08:17:31;;;;;;;23.33;21.10;;;;;;;13.65;79.16;100026.84;5054134;28;20263;-82
2023/04/23 08:20:02;;;;;;;23.33;20.90;;;;;;;13.60;78.28;100048.94;5055434;28;20213;-82
2023/04/23 08:22:34;;;;;;;20.00;18.17;;;;;;;13.93;80.51;100011.81;5055744;28;20229;-82
2023/04/23 08:25:07;;;;;;;19.67;17.97;;;;;;;13.92;73.46;100094.94;5054993;28;20216;-83
2023/04/23 08:27:37;;;;;;;20.83;19.03;;;;;;;13.73;74.42;100141.97;5058448;28;20206;-82
2023/04/23 08:30:07;;;;;;;21.07;19.17;;;;;;;13.67;74.73;100135.19;5053901;28;20195;-82
2023/04/23 08:32:36;;;;;;;21.83;19.73;;;;;;;13.72;75.22;100121.91;5054656;28;20219;-81
2023/04/23 08:35:03;;;;;;;19.73;17.90;;;;;;;13.68;73.50;100143.94;5062300;28;20224;-79
2023/04/23 08:37:33;;;;;;;19.47;17.87;;;;;;;13.63;74.93;100153.72;5054538;28;20271;-81
2023/04/23 08:40:00;;;;;;;18.30;16.90;;;;;;;13.64;72.07;100168.56;5054154;28;20206;-84
2023/04/23 08:42:37;;;;;;;16.53;15.23;;;;;;;13.81;70.86;100228.28;5054122;28;20231;-82
2023/04/23 08:45:18;;;;;;;15.60;14.20;;;;;;;13.94;69.06;100270.69;5060271;28;20235;-83
2023/04/23 08:47:50;;;;;;;14.00;12.87;;;;;;;13.98;65.61;100335.28;5061240;28;20698;-84
2023/04/23 08:50:23;;;;;;;12.47;11.43;;;;;;;14.07;66.26;100367.31;5060706;28;20203;-83
2023/04/23 08:53:06;;;;;;;13.97;12.70;;;;;;;14.21;67.55;100403.59;5060442;28;20238;-82
2023/04/23 08:55:42;;;;;;;13.53;12.23;;;;;;;14.29;63.72;100390.16;5062670;28;20239;-84
2023/04/23 08:58:13;;;;;;;13.57;12.37;;;;;;;14.30;64.97;100447.03;5063109;28;20210;-81
2023/04/23 09:00:56;;;;;;;15.10;13.80;;;;;;;14.18;65.74;100476.34;5062719;28;20215;-81
2023/04/23 09:03:29;;;;;;;13.83;12.63;;;;;;;14.27;65.35;100449.75;5063740;28;20222;-83
2023/04/23 09:06:00;;;;;;;14.73;13.33;;;;;;;14.39;64.47;100445.84;5064496;28;20735;-83
2023/04/23 09:08:32;;;;;;;14.37;13.17;;;;;;;14.25;62.15;100494.47;5062283;28;20215;-81
2023/04/23 09:11:01;;;;;;;14.27;13.00;;;;;;;14.21;62.65;100524.34;5063965;28;20210;-81
2023/04/23 09:16:33;;;;;;;14.37;13.17;;;;;;;14.43;64.22;100489.47;5063594;28;20273;-81
2023/04/23 09:19:24;;;;;;;14.30;13.07;;;;;;;14.49;60.98;100481.41;5063179;28;20220;-81
2023/04/23 09:21:54;;;;;;;14.77;13.57;;;;;;;14.52;62.33;100506.69;4980902;28;20418;-80
2023/04/23 09:24:27;;;;;;;12.53;11.63;;;;;;;14.68;63.29;100484.28;5053753;28;20224;-82
2023/04/23 09:26:57;;;;;;;12.00;11.00;;;;;;;14.64;59.43;100494.03;5062459;28;20222;-81
2023/04/23 09:29:27;;;;;;;11.50;10.60;;;;;;;14.79;60.13;100531.22;4361171;28;10000704;-81
2023/04/23 09:32:25;;;;;;;11.87;10.73;;;;;;;14.86;59.86;100537.94;5056233;28;20204;-81
2023/04/23 09:35:03;;;;;;;11.77;10.77;;;;;;;14.85;59.03;100558.13;5056532;28;20262;-82
2023/04/23 09:37:29;;;;;;;13.23;12.13;;;;;;;14.87;58.73;100537.06;5056055;28;20219;-82
2023/04/23 09:40:32;;;;;;;11.87;10.97;;;;;;;14.99;59.49;100535.75;5056961;28;20713;-81
2023/04/23 09:42:59;;;;;;;12.00;11.07;;;;;;;15.12;59.32;100557.19;5050055;23;20287;-77
2023/04/23 09:45:25;;;;;;;12.73;11.57;;;;;;;15.25;59.82;100542.69;5031686;28;20213;-77
2023/04/23 09:47:55;;;;;;;14.10;12.90;;;;;;;15.12;58.82;100531.75;5033380;28;20248;-77
2023/04/23 09:50:32;;;;;;;12.83;11.73;;;;;;;15.16;61.13;100543.88;5035589;28;20209;-77
2023/04/23 09:52:58;;;;;;;8.57;7.83;;;;;;;15.37;58.68;100467.75;5035644;28;20212;-77
2023/04/23 09:55:29;;;;;;;7.63;7.13;;;;;;;15.23;53.97;100519.09;5034767;28;20635;-77
2023/04/23 09:57:56;;;;;;;8.00;7.40;;;;;;;15.38;56.12;100611.47;5031268;28;20288;-77
2023/04/23 10:00:24;;;;;;;9.37;8.67;;;;;;;15.53;58.07;100603.03;5031394;28;20231;-77
2023/04/23 10:03:05;;;;;;;9.37;8.50;;;;;;;15.72;58.97;100566.38;5031422;28;20229;-77
2023/04/23 10:05:32;;;;;;;8.27;7.57;;;;;;;15.80;55.73;100545.06;5031358;28;20207;-77
2023/04/23 10:07:58;;;;;;;8.30;7.60;;;;;;;15.76;54.49;100583.78;5030364;28;20234;-77
2023/04/23 10:10:25;;;;;;;7.57;7.03;;;;;;;15.76;54.68;100615.38;5030813;28;20217;-77
2023/04/23 10:12:53;;;;;;;7.70;7.10;;;;;;;15.89;56.07;100626.28;5031119;28;20214;-77
2023/04/23 10:15:20;;;;;;;8.70;8.00;;;;;;;16.00;56.06;100610.09;5031452;28;20210;-77
2023/04/23 10:17:47;;;;;;;7.60;7.03;;;;;;;16.17;57.20;100601.53;5030303;28;20787;-77
2023/04/23 10:20:16;;;;;;;8.77;7.97;;;;;;;16.21;55.64;100568.88;5030862;28;20213;-77
2023/04/23 10:22:45;;;;;;;8.97;8.27;;;;;;;16.32;57.83;100584.25;5030847;28;20214;-77
2023/04/23 10:25:13;;;;;;;7.87;7.27;;;;;;;16.51;58.82;100523.75;5030398;28;20587;-77
2023/04/23 10:27:41;;;;;;;9.30;8.60;;;;;;;16.27;54.73;100540.53;5030394;28;20718;-77
2023/04/23 10:30:10;;;;;;;9.83;9.00;;;;;;;16.43;56.62;100569.72;5031835;28;20526;-76
2023/04/23 10:32:37;;;;;;;8.30;7.70;;;;;;;16.48;55.38;100530.84;5030316;28;20212;-75
2023/04/23 10:35:04;;;;;;;9.20;8.50;;;;;;;16.53;55.92;100574.59;5030879;28;20209;-76
2023/04/23 10:37:32;;;;;;;9.87;9.17;;;;;;;16.50;54.12;100585.28;5029633;28;20287;-77
2023/04/23 10:40:04;;;;;;;8.20;7.60;;;;;;;16.45;54.78;100593.34;5031747;28;20214;-77
2023/04/23 10:42:31;;;;;;;7.50;6.93;;;;;;;16.53;54.16;100617.66;5029412;28;20209;-77
2023/04/23 10:44:58;;;;;;;6.23;5.83;;;;;;;16.71;54.22;100612.50;5031736;28;20724;-76
2023/04/23 10:47:24;;;;;;;7.07;6.47;;;;;;;16.71;51.49;100608.13;5035300;28;20629;-77
2023/04/23 10:49:51;;;;;;;6.53;6.03;;;;;;;16.93;52.59;100655.56;5032526;28;20655;-77
2023/04/23 10:52:19;;;;;;;7.13;6.53;;;;;;;16.96;51.81;100667.75;5032556;28;20206;-77
2023/04/23 10:54:56;;;;;;;6.50;6.00;;;;;;;16.97;51.70;100683.53;5036479;28;20219;-77
2023/04/23 10:57:22;;;;;;;5.90;5.50;;;;;;;16.88;52.67;100681.25;5032178;28;20229;-77
2023/04/23 10:59:55;;;;;;;5.67;5.27;;;;;;;17.00;53.53;100640.31;5032496;28;20592;-77
2023/04/23 11:02:24;;;;;;;5.97;5.57;;;;;;;16.90;53.76;100641.66;5032434;28;20223;-77
2023/04/23 11:04:55;;;;;;;4.73;4.43;;;;;;;17.05;54.92;100612.84;5031666;28;20214;-77
2023/04/23 11:07:26;;;;;;;4.50;4.27;;;;;;;17.11;53.70;100601.19;5032760;28;20230;-77
2023/04/23 11:09:56;;;;;;;5.33;4.93;;;;;;;17.15;52.27;100568.47;5032269;28;20202;-77
2023/04/23 11:12:32;;;;;;;5.20;4.73;;;;;;;17.22;51.48;100582.22;5032852;28;20198;-77
2023/04/23 11:14:59;;;;;;;5.13;4.73;;;;;;;17.43;52.44;100604.16;5032160;28;20306;-77
2023/04/23 11:17:55;;;;;;;5.50;5.10;;;;;;;17.50;51.38;100608.22;5031864;28;20576;-77
2023/04/23 11:20:23;;;;;;;4.50;4.20;;;;;;;17.58;50.89;100616.69;5031769;28;20206;-77
2023/04/23 11:22:51;;;;;;;3.70;3.40;;;;;;;17.82;50.59;100648.19;5032180;28;20206;-77
2023/04/23 11:25:22;;;;;;;3.77;3.50;;;;;;;18.17;50.29;100656.25;5032704;28;20229;-77
2023/04/23 11:27:50;;;;;;;4.07;3.77;;;;;;;18.52;49.09;100666.94;5029877;28;20229;-77
2023/04/23 11:30:19;;;;;;;3.43;3.10;;;;;;;19.13;49.06;100663.09;5032712;28;20194;-77